Genco Champion — VRDK5 — position and weather

sailwx.info

Track history (hours):
 
Tides and Currents Weather Stations Pressure Air Temp Water Temp Dewpoint Dewpoint Depression Visibility Wind Speed Wind Dir Waves Ship Positions

Genco Champion

Last reported at 2018-Jan-05 15:18 UTC. Time now 2018-Jan-22 20:46 UTC.
Position N 48°17' W 125°39'.
Warning: this ship's position is 17 days out of date.

; draft 10 m.

Type: Cargo ship. MMSI: 477985400.

Date/timePositionNaut miles runAvg speedWind from/ knotsBaromVisibWave heightAir tempDewpointWater temp
2018-Jan-05 15:18N 48°17' W 125°39'3 9.8
2018-Jan-05 14:59N 48°19' W 125°36'5 9.9
2018-Jan-05 14:30N 48°22' W 125°30'5 9.7
2018-Jan-05 13:59N 48°25' W 125°24'5 9.3
2018-Jan-05 13:30N 48°28' W 125°19'5 9.2
2018-Jan-05 12:59N 48°30' W 125°13'5 9.9
2018-Jan-05 12:30N 48°31' W 125°06'610.5
2018-Jan-05 11:56N 48°31' W 124°57'410.7
2018-Jan-05 11:30N 48°31' W 124°50'510.6
2018-Jan-05 11:00N 48°30' W 124°42'611.3
2018-Jan-05 10:30N 48°28' W 124°34'611.3
2018-Jan-05 10:00N 48°26' W 124°26'611.5
2018-Jan-05 09:30N 48°24' W 124°18'611.8
2018-Jan-05 09:00N 48°21' W 124°10'612.3
2018-Jan-05 08:30N 48°19' W 124°01'613.1
2018-Jan-05 08:00N 48°17' W 123°52'714.6
2018-Jan-05 07:30N 48°16' W 123°41'714.8
2018-Jan-05 07:00N 48°16' W 123°30'713.1
2018-Jan-05 06:31N 48°22' W 123°25'5 9.1
2018-Jan-05 06:00N 48°23' W 123°19'611.6
2018-Jan-05 05:30N 48°27' W 123°12'815.5
2018-Jan-05 05:00N 48°34' W 123°13'714.3
2018-Jan-05 04:30N 48°42' W 123°15'714.3
2018-Jan-05 04:00N 48°45' W 123°06'611.4
2018-Jan-05 03:29N 48°50' W 123°01'612.9
2018-Jan-05 03:00N 48°54' W 123°08'713.0
2018-Jan-05 02:30N 48°59' W 123°15'612.9
2018-Jan-05 02:00N 49°03' W 123°22'611.1
2018-Jan-05 01:30N 49°09' W 123°23'612.3
2018-Jan-05 01:00N 49°15' W 123°21'611.3
2018-Jan-05 00:30N 49°19' W 123°15'5 9.6
2018-Jan-05 00:00N 49°19' W 123°08'1 1.6
2018-Jan-04 23:28N 49°18' W 123°06'0 0.1
2018-Jan-04 22:58N 49°18' W 123°06'0 0.0
2018-Jan-04 22:28N 49°18' W 123°06'0 0.0
2018-Jan-04 21:58N 49°18' W 123°06'0 0.1
2018-Jan-04 21:28N 49°18' W 123°06'0 0.0
2018-Jan-04 20:58N 49°18' W 123°06'0 0.0
2018-Jan-04 20:28N 49°18' W 123°06'0 0.0
2018-Jan-04 19:58N 49°18' W 123°06'0 0.0
2018-Jan-04 19:28N 49°18' W 123°06'0 0.1
2018-Jan-04 18:58N 49°18' W 123°06'0 0.0
2018-Jan-04 18:28N 49°18' W 123°06'0 0.1
2018-Jan-04 17:58N 49°18' W 123°06'0 0.0
2018-Jan-04 17:28N 49°18' W 123°06'0 0.1
2018-Jan-04 16:58N 49°18' W 123°06'0 0.1
2018-Jan-04 16:25N 49°18' W 123°06'0 0.0
2018-Jan-04 15:58N 49°18' W 123°06'0 0.1
2018-Jan-04 15:28N 49°18' W 123°06'0 0.0
2018-Jan-04 14:58N 49°18' W 123°06'0 0.0
2018-Jan-04 14:28N 49°18' W 123°06'0 0.0
2018-Jan-04 13:58N 49°18' W 123°06'0 0.1
2018-Jan-04 13:28N 49°18' W 123°06'0 0.0
2018-Jan-04 12:58N 49°18' W 123°06'0 0.0
2018-Jan-04 12:28N 49°18' W 123°06'0 0.0
2018-Jan-04 11:58N 49°18' W 123°06'0 0.1
2018-Jan-04 11:28N 49°18' W 123°06'0 0.3
2018-Jan-04 10:58N 49°18' W 123°06'0 0.4
2018-Jan-04 10:28N 49°18' W 123°06'0 0.1
2018-Jan-04 09:58N 49°18' W 123°06'0 0.1
2018-Jan-04 09:28N 49°18' W 123°06'0 0.0
2018-Jan-04 08:58N 49°18' W 123°06'0 0.1
2018-Jan-04 08:28N 49°18' W 123°06'0 0.0
2018-Jan-04 07:58N 49°18' W 123°06'0 0.0
2018-Jan-04 07:28N 49°18' W 123°06'0 0.1
2018-Jan-04 06:58N 49°18' W 123°06'0 0.1
2018-Jan-04 06:28N 49°18' W 123°06'0 0.0
2018-Jan-04 05:58N 49°18' W 123°06'0 0.0
2018-Jan-04 05:28N 49°18' W 123°06'0 0.0
2018-Jan-04 04:58N 49°18' W 123°06'0 0.0
2018-Jan-04 04:28N 49°18' W 123°06'0 0.0
2018-Jan-04 03:58N 49°18' W 123°06'0 0.0
2018-Jan-04 03:28N 49°18' W 123°06'0 0.0
2018-Jan-04 02:58N 49°18' W 123°06'0 0.0
2018-Jan-04 02:28N 49°18' W 123°06'0 0.0
2018-Jan-04 01:58N 49°18' W 123°06'0 0.2
2018-Jan-04 01:28N 49°18' W 123°06'0 0.3
2018-Jan-04 00:58N 49°18' W 123°06'0 0.2
2018-Jan-04 00:28N 49°18' W 123°06'0 0.5
2018-Jan-03 23:58N 49°18' W 123°06'1 2.5
2018-Jan-03 23:30N 49°18' W 123°04'2 3.1
2018-Jan-03 23:00N 49°18' W 123°02'0 0.0
2018-Jan-03 22:27N 49°18' W 123°02'0 0.0
2018-Jan-03 21:57N 49°18' W 123°02'0 0.0
2018-Jan-03 21:24N 49°18' W 123°02'0 0.0
2018-Jan-03 21:00N 49°18' W 123°02'0 0.0
2018-Jan-03 20:30N 49°18' W 123°02'0 0.0
2018-Jan-03 19:57N 49°18' W 123°02'0 0.0
2018-Jan-03 19:27N 49°18' W 123°02'0 0.0
2018-Jan-03 18:54N 49°18' W 123°02'0 0.0
2018-Jan-03 18:27N 49°18' W 123°02'0 0.0
2018-Jan-03 17:54N 49°18' W 123°02'0 0.0
2018-Jan-03 17:30N 49°18' W 123°02'0 0.0
2018-Jan-03 16:57N 49°18' W 123°02'0 0.0
2018-Jan-03 16:30N 49°18' W 123°02'0 0.0
2018-Jan-03 15:57N 49°18' W 123°02'0 0.0
2018-Jan-03 15:27N 49°18' W 123°02'0 0.0
2018-Jan-03 15:00N 49°18' W 123°02'0 0.0
2018-Jan-03 14:30N 49°18' W 123°02'0 0.0
2018-Jan-03 13:57N 49°18' W 123°02'0 0.0
2018-Jan-03 13:27N 49°18' W 123°02'0 0.0
2018-Jan-03 13:00N 49°18' W 123°02'0 0.0
2018-Jan-03 12:30N 49°18' W 123°02'0 0.0
2018-Jan-03 12:00N 49°18' W 123°02'0 0.0
2018-Jan-03 11:24N 49°18' W 123°02'0 0.0
2018-Jan-03 10:57N 49°18' W 123°02'0 0.0
2018-Jan-03 10:27N 49°18' W 123°02'0 0.0
2018-Jan-03 09:57N 49°18' W 123°02'0 0.0
2018-Jan-03 09:24N 49°18' W 123°02'1 1.8
2018-Jan-03 09:00N 49°18' W 123°03'4 7.2
2018-Jan-03 08:30N 49°19' W 123°08'4 7.2
2018-Jan-03 08:00N 49°19' W 123°14'510.2
2018-Jan-03 07:29N 49°15' W 123°19'613.1
2018-Jan-03 07:00N 49°08' W 123°21'611.2
2018-Jan-03 06:30N 49°03' W 123°19'611.5
2018-Jan-03 06:00N 48°59' W 123°13'511.2
2018-Jan-03 05:30N 48°55' W 123°07'510.6
2018-Jan-03 05:00N 48°51' W 123°02'4 8.7
2018-Jan-03 04:30N 48°46' W 123°03'5 9.4
2018-Jan-03 04:00N 48°44' W 123°09'5 9.1
2018-Jan-03 03:30N 48°44' W 123°16'612.9
2018-Jan-03 03:00N 48°49' W 123°21'713.4
2018-Jan-03 02:30N 48°54' W 123°28'714.0
2018-Jan-03 02:00N 48°59' W 123°35'  
Track history (hours):
 
Tides and Currents Weather Stations Pressure Air Temp Water Temp Dewpoint Dewpoint Depression Visibility Wind Speed Wind Dir Waves Ship Positions

Genco Champion

Last reported at 2018-Jan-05 15:18 UTC. Time now 2018-Jan-22 20:46 UTC.
Position N 48°17' W 125°39'.
Warning: this ship's position is 17 days out of date.

; draft 10 m.

Type: Cargo ship. MMSI: 477985400.

Date/timePositionNaut miles runAvg speedWind from/ knotsBaromVisibWave heightAir tempDewpointWater temp
2018-Jan-05 15:18N 48°17' W 125°39'3 9.8
2018-Jan-05 14:59N 48°19' W 125°36'5 9.9
2018-Jan-05 14:30N 48°22' W 125°30'5 9.7
2018-Jan-05 13:59N 48°25' W 125°24'5 9.3
2018-Jan-05 13:30N 48°28' W 125°19'5 9.2
2018-Jan-05 12:59N 48°30' W 125°13'5 9.9
2018-Jan-05 12:30N 48°31' W 125°06'610.5
2018-Jan-05 11:56N 48°31' W 124°57'410.7
2018-Jan-05 11:30N 48°31' W 124°50'510.6
2018-Jan-05 11:00N 48°30' W 124°42'611.3
2018-Jan-05 10:30N 48°28' W 124°34'611.3
2018-Jan-05 10:00N 48°26' W 124°26'611.5
2018-Jan-05 09:30N 48°24' W 124°18'611.8
2018-Jan-05 09:00N 48°21' W 124°10'612.3
2018-Jan-05 08:30N 48°19' W 124°01'613.1
2018-Jan-05 08:00N 48°17' W 123°52'714.6
2018-Jan-05 07:30N 48°16' W 123°41'714.8
2018-Jan-05 07:00N 48°16' W 123°30'713.1
2018-Jan-05 06:31N 48°22' W 123°25'5 9.1
2018-Jan-05 06:00N 48°23' W 123°19'611.6
2018-Jan-05 05:30N 48°27' W 123°12'815.5
2018-Jan-05 05:00N 48°34' W 123°13'714.3
2018-Jan-05 04:30N 48°42' W 123°15'714.3
2018-Jan-05 04:00N 48°45' W 123°06'611.4
2018-Jan-05 03:29N 48°50' W 123°01'612.9
2018-Jan-05 03:00N 48°54' W 123°08'713.0
2018-Jan-05 02:30N 48°59' W 123°15'612.9
2018-Jan-05 02:00N 49°03' W 123°22'611.1
2018-Jan-05 01:30N 49°09' W 123°23'612.3
2018-Jan-05 01:00N 49°15' W 123°21'611.3
2018-Jan-05 00:30N 49°19' W 123°15'5 9.6
2018-Jan-05 00:00N 49°19' W 123°08'1 1.6
2018-Jan-04 23:28N 49°18' W 123°06'0 0.1
2018-Jan-04 22:58N 49°18' W 123°06'0 0.0
2018-Jan-04 22:28N 49°18' W 123°06'0 0.0
2018-Jan-04 21:58N 49°18' W 123°06'0 0.1
2018-Jan-04 21:28N 49°18' W 123°06'0 0.0
2018-Jan-04 20:58N 49°18' W 123°06'0 0.0
2018-Jan-04 20:28N 49°18' W 123°06'0 0.0
2018-Jan-04 19:58N 49°18' W 123°06'0 0.0
2018-Jan-04 19:28N 49°18' W 123°06'0 0.1
2018-Jan-04 18:58N 49°18' W 123°06'0 0.0
2018-Jan-04 18:28N 49°18' W 123°06'0 0.1
2018-Jan-04 17:58N 49°18' W 123°06'0 0.0
2018-Jan-04 17:28N 49°18' W 123°06'0 0.1
2018-Jan-04 16:58N 49°18' W 123°06'0 0.1
2018-Jan-04 16:25N 49°18' W 123°06'0 0.0
2018-Jan-04 15:58N 49°18' W 123°06'0 0.1
2018-Jan-04 15:28N 49°18' W 123°06'0 0.0
2018-Jan-04 14:58N 49°18' W 123°06'0 0.0
2018-Jan-04 14:28N 49°18' W 123°06'0 0.0
2018-Jan-04 13:58N 49°18' W 123°06'0 0.1
2018-Jan-04 13:28N 49°18' W 123°06'0 0.0
2018-Jan-04 12:58N 49°18' W 123°06'0 0.0
2018-Jan-04 12:28N 49°18' W 123°06'0 0.0
2018-Jan-04 11:58N 49°18' W 123°06'0 0.1
2018-Jan-04 11:28N 49°18' W 123°06'0 0.3
2018-Jan-04 10:58N 49°18' W 123°06'0 0.4
2018-Jan-04 10:28N 49°18' W 123°06'0 0.1
2018-Jan-04 09:58N 49°18' W 123°06'0 0.1
2018-Jan-04 09:28N 49°18' W 123°06'0 0.0
2018-Jan-04 08:58N 49°18' W 123°06'0 0.1
2018-Jan-04 08:28N 49°18' W 123°06'0 0.0
2018-Jan-04 07:58N 49°18' W 123°06'0 0.0
2018-Jan-04 07:28N 49°18' W 123°06'0 0.1
2018-Jan-04 06:58N 49°18' W 123°06'0 0.1
2018-Jan-04 06:28N 49°18' W 123°06'0 0.0
2018-Jan-04 05:58N 49°18' W 123°06'0 0.0
2018-Jan-04 05:28N 49°18' W 123°06'0 0.0
2018-Jan-04 04:58N 49°18' W 123°06'0 0.0
2018-Jan-04 04:28N 49°18' W 123°06'0 0.0
2018-Jan-04 03:58N 49°18' W 123°06'0 0.0
2018-Jan-04 03:28N 49°18' W 123°06'0 0.0
2018-Jan-04 02:58N 49°18' W 123°06'0 0.0
2018-Jan-04 02:28N 49°18' W 123°06'0 0.0
2018-Jan-04 01:58N 49°18' W 123°06'0 0.2
2018-Jan-04 01:28N 49°18' W 123°06'0 0.3
2018-Jan-04 00:58N 49°18' W 123°06'0 0.2
2018-Jan-04 00:28N 49°18' W 123°06'0 0.5
2018-Jan-03 23:58N 49°18' W 123°06'1 2.5
2018-Jan-03 23:30N 49°18' W 123°04'2 3.1
2018-Jan-03 23:00N 49°18' W 123°02'0 0.0
2018-Jan-03 22:27N 49°18' W 123°02'0 0.0
2018-Jan-03 21:57N 49°18' W 123°02'0 0.0
2018-Jan-03 21:24N 49°18' W 123°02'0 0.0
2018-Jan-03 21:00N 49°18' W 123°02'0 0.0
2018-Jan-03 20:30N 49°18' W 123°02'0 0.0
2018-Jan-03 19:57N 49°18' W 123°02'0 0.0
2018-Jan-03 19:27N 49°18' W 123°02'0 0.0
2018-Jan-03 18:54N 49°18' W 123°02'0 0.0
2018-Jan-03 18:27N 49°18' W 123°02'0 0.0
2018-Jan-03 17:54N 49°18' W 123°02'0 0.0
2018-Jan-03 17:30N 49°18' W 123°02'0 0.0
2018-Jan-03 16:57N 49°18' W 123°02'0 0.0
2018-Jan-03 16:30N 49°18' W 123°02'0 0.0
2018-Jan-03 15:57N 49°18' W 123°02'0 0.0
2018-Jan-03 15:27N 49°18' W 123°02'0 0.0
2018-Jan-03 15:00N 49°18' W 123°02'0 0.0
2018-Jan-03 14:30N 49°18' W 123°02'0 0.0
2018-Jan-03 13:57N 49°18' W 123°02'0 0.0
2018-Jan-03 13:27N 49°18' W 123°02'0 0.0
2018-Jan-03 13:00N 49°18' W 123°02'0 0.0
2018-Jan-03 12:30N 49°18' W 123°02'0 0.0
2018-Jan-03 12:00N 49°18' W 123°02'0 0.0
2018-Jan-03 11:24N 49°18' W 123°02'0 0.0
2018-Jan-03 10:57N 49°18' W 123°02'0 0.0
2018-Jan-03 10:27N 49°18' W 123°02'0 0.0
2018-Jan-03 09:57N 49°18' W 123°02'0 0.0
2018-Jan-03 09:24N 49°18' W 123°02'1 1.8
2018-Jan-03 09:00N 49°18' W 123°03'4 7.2
2018-Jan-03 08:30N 49°19' W 123°08'4 7.2
2018-Jan-03 08:00N 49°19' W 123°14'510.2
2018-Jan-03 07:29N 49°15' W 123°19'613.1
2018-Jan-03 07:00N 49°08' W 123°21'611.2
2018-Jan-03 06:30N 49°03' W 123°19'611.5
2018-Jan-03 06:00N 48°59' W 123°13'511.2
2018-Jan-03 05:30N 48°55' W 123°07'510.6
2018-Jan-03 05:00N 48°51' W 123°02'4 8.7
2018-Jan-03 04:30N 48°46' W 123°03'5 9.4
2018-Jan-03 04:00N 48°44' W 123°09'5 9.1
2018-Jan-03 03:30N 48°44' W 123°16'612.9
2018-Jan-03 03:00N 48°49' W 123°21'713.4
2018-Jan-03 02:30N 48°54' W 123°28'714.0
2018-Jan-03 02:00N 48°59' W 123°35'  

Dump ship's entire track history